sensor_id;sensor_type;location;lat;lon;timestamp;P1;durP1;ratioP1;P2;durP2;ratioP2
16029;SDS011;34770;49.272;11.070;2024-02-26T00:02:16;8.20;;;5.00;;
16029;SDS011;34770;49.272;11.070;2024-02-26T00:04:42;5.83;;;5.03;;
16029;SDS011;34770;49.272;11.070;2024-02-26T00:07:07;6.53;;;4.47;;
16029;SDS011;34770;49.272;11.070;2024-02-26T00:09:33;5.67;;;4.63;;
16029;SDS011;34770;49.272;11.070;2024-02-26T00:12:01;6.90;;;5.30;;
16029;SDS011;34770;49.272;11.070;2024-02-26T00:14:28;5.93;;;4.37;;
16029;SDS011;34770;49.272;11.070;2024-02-26T00:16:54;5.33;;;4.83;;
16029;SDS011;34770;49.272;11.070;2024-02-26T00:19:20;7.33;;;6.10;;
16029;SDS011;34770;49.272;11.070;2024-02-26T00:21:45;8.00;;;5.23;;
16029;SDS011;34770;49.272;11.070;2024-02-26T00:24:10;6.27;;;5.20;;
16029;SDS011;34770;49.272;11.070;2024-02-26T00:26:36;7.23;;;5.17;;
16029;SDS011;34770;49.272;11.070;2024-02-26T00:29:01;8.77;;;5.67;;
16029;SDS011;34770;49.272;11.070;2024-02-26T00:31:27;6.20;;;5.37;;
16029;SDS011;34770;49.272;11.070;2024-02-26T00:33:52;7.57;;;4.90;;
16029;SDS011;34770;49.272;11.070;2024-02-26T00:36:18;7.57;;;5.30;;
16029;SDS011;34770;49.272;11.070;2024-02-26T00:38:44;8.30;;;5.60;;
16029;SDS011;34770;49.272;11.070;2024-02-26T00:41:11;7.03;;;6.07;;
16029;SDS011;34770;49.272;11.070;2024-02-26T00:43:36;7.43;;;5.60;;
16029;SDS011;34770;49.272;11.070;2024-02-26T00:46:04;12.40;;;6.27;;
16029;SDS011;34770;49.272;11.070;2024-02-26T00:48:30;6.13;;;5.43;;
16029;SDS011;34770;49.272;11.070;2024-02-26T00:50:55;8.00;;;5.40;;
16029;SDS011;34770;49.272;11.070;2024-02-26T00:53:20;7.33;;;5.13;;
16029;SDS011;34770;49.272;11.070;2024-02-26T00:55:46;8.00;;;5.60;;
16029;SDS011;34770;49.272;11.070;2024-02-26T00:58:11;5.80;;;5.00;;
16029;SDS011;34770;49.272;11.070;2024-02-26T01:00:37;5.77;;;4.83;;
16029;SDS011;34770;49.272;11.070;2024-02-26T01:03:02;6.10;;;5.33;;
16029;SDS011;34770;49.272;11.070;2024-02-26T01:05:29;7.10;;;6.03;;
16029;SDS011;34770;49.272;11.070;2024-02-26T01:07:55;7.77;;;5.43;;
16029;SDS011;34770;49.272;11.070;2024-02-26T01:10:20;7.57;;;5.70;;
16029;SDS011;34770;49.272;11.070;2024-02-26T01:12:45;8.63;;;5.83;;
16029;SDS011;34770;49.272;11.070;2024-02-26T01:15:11;6.67;;;5.53;;
16029;SDS011;34770;49.272;11.070;2024-02-26T01:17:36;6.90;;;5.80;;
16029;SDS011;34770;49.272;11.070;2024-02-26T01:20:02;7.17;;;5.77;;
16029;SDS011;34770;49.272;11.070;2024-02-26T01:22:27;6.63;;;5.23;;
16029;SDS011;34770;49.272;11.070;2024-02-26T01:24:53;11.63;;;6.83;;
16029;SDS011;34770;49.272;11.070;2024-02-26T01:27:18;9.23;;;6.30;;
16029;SDS011;34770;49.272;11.070;2024-02-26T01:29:44;8.00;;;6.17;;
16029;SDS011;34770;49.272;11.070;2024-02-26T01:32:10;6.67;;;5.50;;
16029;SDS011;34770;49.272;11.070;2024-02-26T01:34:35;8.27;;;5.33;;
16029;SDS011;34770;49.272;11.070;2024-02-26T01:37:02;7.23;;;5.50;;
16029;SDS011;34770;49.272;11.070;2024-02-26T01:39:27;8.77;;;5.40;;
16029;SDS011;34770;49.272;11.070;2024-02-26T01:41:54;9.03;;;6.27;;
16029;SDS011;34770;49.272;11.070;2024-02-26T01:44:19;8.20;;;6.13;;
16029;SDS011;34770;49.272;11.070;2024-02-26T01:46:45;8.87;;;6.70;;
16029;SDS011;34770;49.272;11.070;2024-02-26T01:49:11;11.70;;;6.40;;
16029;SDS011;34770;49.272;11.070;2024-02-26T01:51:38;8.73;;;6.80;;
16029;SDS011;34770;49.272;11.070;2024-02-26T01:54:06;7.27;;;5.67;;
16029;SDS011;34770;49.272;11.070;2024-02-26T01:56:33;7.90;;;6.00;;
16029;SDS011;34770;49.272;11.070;2024-02-26T01:59:00;8.47;;;5.87;;
16029;SDS011;34770;49.272;11.070;2024-02-26T02:01:27;8.27;;;6.47;;
16029;SDS011;34770;49.272;11.070;2024-02-26T02:03:56;8.80;;;6.73;;
16029;SDS011;34770;49.272;11.070;2024-02-26T02:06:24;9.77;;;7.03;;
16029;SDS011;34770;49.272;11.070;2024-02-26T02:08:49;8.80;;;6.73;;
16029;SDS011;34770;49.272;11.070;2024-02-26T02:11:16;9.97;;;6.57;;
16029;SDS011;34770;49.272;11.070;2024-02-26T02:13:41;9.27;;;6.60;;
16029;SDS011;34770;49.272;11.070;2024-02-26T02:16:07;9.67;;;7.17;;
16029;SDS011;34770;49.272;11.070;2024-02-26T02:18:33;11.73;;;7.60;;
16029;SDS011;34770;49.272;11.070;2024-02-26T02:21:01;15.23;;;9.97;;
16029;SDS011;34770;49.272;11.070;2024-02-26T02:23:27;16.33;;;9.90;;
16029;SDS011;34770;49.272;11.070;2024-02-26T02:25:53;11.17;;;8.33;;
16029;SDS011;34770;49.272;11.070;2024-02-26T02:28:20;15.67;;;10.13;;
16029;SDS011;34770;49.272;11.070;2024-02-26T02:30:46;16.47;;;10.40;;
16029;SDS011;34770;49.272;11.070;2024-02-26T02:33:12;15.90;;;10.13;;
16029;SDS011;34770;49.272;11.070;2024-02-26T02:35:38;16.43;;;10.90;;
16029;SDS011;34770;49.272;11.070;2024-02-26T02:38:03;17.37;;;11.43;;
16029;SDS011;34770;49.272;11.070;2024-02-26T02:40:29;16.60;;;10.93;;
16029;SDS011;34770;49.272;11.070;2024-02-26T02:42:54;17.37;;;10.90;;
16029;SDS011;34770;49.272;11.070;2024-02-26T02:45:20;17.53;;;10.33;;
16029;SDS011;34770;49.272;11.070;2024-02-26T02:47:45;13.73;;;9.77;;
16029;SDS011;34770;49.272;11.070;2024-02-26T02:50:10;15.43;;;9.40;;
16029;SDS011;34770;49.272;11.070;2024-02-26T02:52:36;14.20;;;9.80;;
16029;SDS011;34770;49.272;11.070;2024-02-26T02:55:01;15.70;;;10.17;;
16029;SDS011;34770;49.272;11.070;2024-02-26T02:57:27;15.90;;;10.20;;
16029;SDS011;34770;49.272;11.070;2024-02-26T02:59:53;16.50;;;10.67;;
16029;SDS011;34770;49.272;11.070;2024-02-26T03:02:19;17.43;;;9.33;;
16029;SDS011;34770;49.272;11.070;2024-02-26T03:04:44;14.40;;;10.57;;
16029;SDS011;34770;49.272;11.070;2024-02-26T03:07:10;16.30;;;10.90;;
16029;SDS011;34770;49.272;11.070;2024-02-26T03:09:35;15.77;;;10.63;;
16029;SDS011;34770;49.272;11.070;2024-02-26T03:12:00;14.57;;;9.87;;
16029;SDS011;34770;49.272;11.070;2024-02-26T03:14:26;15.27;;;10.00;;
16029;SDS011;34770;49.272;11.070;2024-02-26T03:16:54;17.90;;;10.57;;
16029;SDS011;34770;49.272;11.070;2024-02-26T03:19:20;18.30;;;11.07;;
16029;SDS011;34770;49.272;11.070;2024-02-26T03:21:46;18.33;;;10.47;;
16029;SDS011;34770;49.272;11.070;2024-02-26T03:24:11;19.00;;;12.80;;
16029;SDS011;34770;49.272;11.070;2024-02-26T03:26:37;20.17;;;12.07;;
16029;SDS011;34770;49.272;11.070;2024-02-26T03:29:03;20.57;;;11.40;;
16029;SDS011;34770;49.272;11.070;2024-02-26T03:31:29;15.90;;;11.90;;
16029;SDS011;34770;49.272;11.070;2024-02-26T03:33:54;18.93;;;11.43;;
16029;SDS011;34770;49.272;11.070;2024-02-26T03:36:20;16.67;;;11.30;;
16029;SDS011;34770;49.272;11.070;2024-02-26T03:38:46;19.33;;;10.80;;
16029;SDS011;34770;49.272;11.070;2024-02-26T03:41:12;15.17;;;11.00;;
16029;SDS011;34770;49.272;11.070;2024-02-26T03:43:38;17.27;;;11.07;;
16029;SDS011;34770;49.272;11.070;2024-02-26T03:46:03;18.97;;;12.47;;
16029;SDS011;34770;49.272;11.070;2024-02-26T03:48:29;20.83;;;12.50;;
16029;SDS011;34770;49.272;11.070;2024-02-26T03:50:54;18.70;;;11.97;;
16029;SDS011;34770;49.272;11.070;2024-02-26T03:53:19;16.87;;;11.07;;
16029;SDS011;34770;49.272;11.070;2024-02-26T03:55:45;16.53;;;11.10;;
16029;SDS011;34770;49.272;11.070;2024-02-26T03:58:12;17.70;;;11.57;;
16029;SDS011;34770;49.272;11.070;2024-02-26T04:00:37;17.47;;;11.97;;
16029;SDS011;34770;49.272;11.070;2024-02-26T04:03:03;19.57;;;12.17;;
16029;SDS011;34770;49.272;11.070;2024-02-26T04:05:28;19.33;;;11.77;;
16029;SDS011;34770;49.272;11.070;2024-02-26T04:07:54;16.77;;;10.33;;
16029;SDS011;34770;49.272;11.070;2024-02-26T04:10:19;19.57;;;12.67;;
16029;SDS011;34770;49.272;11.070;2024-02-26T04:12:45;20.47;;;12.93;;
16029;SDS011;34770;49.272;11.070;2024-02-26T04:15:11;18.37;;;11.50;;
16029;SDS011;34770;49.272;11.070;2024-02-26T04:17:37;19.87;;;12.30;;
16029;SDS011;34770;49.272;11.070;2024-02-26T04:20:03;19.50;;;10.70;;
16029;SDS011;34770;49.272;11.070;2024-02-26T04:22:30;19.43;;;11.67;;
16029;SDS011;34770;49.272;11.070;2024-02-26T04:24:56;15.67;;;11.40;;
16029;SDS011;34770;49.272;11.070;2024-02-26T04:27:21;18.27;;;11.53;;
16029;SDS011;34770;49.272;11.070;2024-02-26T04:29:47;14.10;;;10.60;;
16029;SDS011;34770;49.272;11.070;2024-02-26T04:32:12;17.37;;;10.90;;
16029;SDS011;34770;49.272;11.070;2024-02-26T04:34:37;17.53;;;11.20;;
16029;SDS011;34770;49.272;11.070;2024-02-26T04:37:03;18.27;;;10.93;;
16029;SDS011;34770;49.272;11.070;2024-02-26T04:39:28;16.67;;;10.57;;
16029;SDS011;34770;49.272;11.070;2024-02-26T04:41:54;15.43;;;10.20;;
16029;SDS011;34770;49.272;11.070;2024-02-26T04:44:19;15.57;;;10.20;;
16029;SDS011;34770;49.272;11.070;2024-02-26T04:46:45;16.13;;;9.93;;
16029;SDS011;34770;49.272;11.070;2024-02-26T04:49:10;18.03;;;11.03;;
16029;SDS011;34770;49.272;11.070;2024-02-26T04:51:36;17.73;;;11.20;;
16029;SDS011;34770;49.272;11.070;2024-02-26T04:54:02;18.37;;;11.40;;
16029;SDS011;34770;49.272;11.070;2024-02-26T04:56:27;18.70;;;11.53;;
16029;SDS011;34770;49.272;11.070;2024-02-26T04:58:53;17.13;;;11.13;;
16029;SDS011;34770;49.272;11.070;2024-02-26T05:01:18;19.80;;;10.90;;
16029;SDS011;34770;49.272;11.070;2024-02-26T05:03:44;20.00;;;12.03;;
16029;SDS011;34770;49.272;11.070;2024-02-26T05:06:09;19.80;;;11.73;;
16029;SDS011;34770;49.272;11.070;2024-02-26T05:08:35;20.10;;;13.13;;
16029;SDS011;34770;49.272;11.070;2024-02-26T05:11:04;19.93;;;11.60;;
16029;SDS011;34770;49.272;11.070;2024-02-26T05:13:29;16.90;;;11.57;;
16029;SDS011;34770;49.272;11.070;2024-02-26T05:15:55;17.50;;;10.83;;
16029;SDS011;34770;49.272;11.070;2024-02-26T05:18:21;15.33;;;10.60;;
16029;SDS011;34770;49.272;11.070;2024-02-26T05:20:47;19.47;;;12.57;;
16029;SDS011;34770;49.272;11.070;2024-02-26T05:23:12;16.47;;;10.73;;
16029;SDS011;34770;49.272;11.070;2024-02-26T05:25:38;18.93;;;12.07;;
16029;SDS011;34770;49.272;11.070;2024-02-26T05:28:03;15.40;;;11.20;;
16029;SDS011;34770;49.272;11.070;2024-02-26T05:30:29;19.70;;;12.33;;
16029;SDS011;34770;49.272;11.070;2024-02-26T05:32:54;17.37;;;12.30;;
16029;SDS011;34770;49.272;11.070;2024-02-26T05:35:20;23.43;;;14.07;;
16029;SDS011;34770;49.272;11.070;2024-02-26T05:37:45;22.53;;;14.17;;
16029;SDS011;34770;49.272;11.070;2024-02-26T05:40:11;20.70;;;13.33;;
16029;SDS011;34770;49.272;11.070;2024-02-26T05:42:37;18.37;;;12.80;;
16029;SDS011;34770;49.272;11.070;2024-02-26T05:45:02;21.50;;;12.30;;
16029;SDS011;34770;49.272;11.070;2024-02-26T05:47:32;19.77;;;12.63;;
16029;SDS011;34770;49.272;11.070;2024-02-26T05:49:57;17.33;;;12.63;;
16029;SDS011;34770;49.272;11.070;2024-02-26T05:52:24;21.50;;;12.50;;
16029;SDS011;34770;49.272;11.070;2024-02-26T05:54:50;21.90;;;13.30;;
16029;SDS011;34770;49.272;11.070;2024-02-26T05:57:15;19.67;;;11.90;;
16029;SDS011;34770;49.272;11.070;2024-02-26T05:59:40;17.67;;;12.03;;
16029;SDS011;34770;49.272;11.070;2024-02-26T06:02:06;15.60;;;10.53;;
16029;SDS011;34770;49.272;11.070;2024-02-26T06:04:31;14.30;;;10.40;;
16029;SDS011;34770;49.272;11.070;2024-02-26T06:06:57;14.57;;;11.10;;
16029;SDS011;34770;49.272;11.070;2024-02-26T06:09:22;18.60;;;10.93;;
16029;SDS011;34770;49.272;11.070;2024-02-26T06:11:48;17.43;;;11.37;;
16029;SDS011;34770;49.272;11.070;2024-02-26T06:14:13;18.03;;;11.57;;
16029;SDS011;34770;49.272;11.070;2024-02-26T06:16:43;19.53;;;11.90;;
16029;SDS011;34770;49.272;11.070;2024-02-26T06:19:08;19.10;;;12.13;;
16029;SDS011;34770;49.272;11.070;2024-02-26T06:21:34;17.43;;;11.17;;
16029;SDS011;34770;49.272;11.070;2024-02-26T06:24:00;14.10;;;9.77;;
16029;SDS011;34770;49.272;11.070;2024-02-26T06:26:26;15.43;;;10.53;;
16029;SDS011;34770;49.272;11.070;2024-02-26T06:28:53;13.77;;;10.43;;
16029;SDS011;34770;49.272;11.070;2024-02-26T06:31:19;14.90;;;9.90;;
16029;SDS011;34770;49.272;11.070;2024-02-26T06:33:47;18.40;;;10.23;;
16029;SDS011;34770;49.272;11.070;2024-02-26T06:36:12;17.10;;;10.53;;
16029;SDS011;34770;49.272;11.070;2024-02-26T06:38:38;18.00;;;12.23;;
16029;SDS011;34770;49.272;11.070;2024-02-26T06:41:03;17.70;;;10.97;;
16029;SDS011;34770;49.272;11.070;2024-02-26T06:43:29;13.53;;;9.93;;
16029;SDS011;34770;49.272;11.070;2024-02-26T06:45:54;14.67;;;9.67;;
16029;SDS011;34770;49.272;11.070;2024-02-26T06:48:19;13.80;;;9.17;;
16029;SDS011;34770;49.272;11.070;2024-02-26T06:50:45;16.10;;;10.70;;
16029;SDS011;34770;49.272;11.070;2024-02-26T06:53:10;14.80;;;10.40;;
16029;SDS011;34770;49.272;11.070;2024-02-26T06:55:36;10.97;;;8.97;;
16029;SDS011;34770;49.272;11.070;2024-02-26T06:58:05;15.60;;;9.87;;
16029;SDS011;34770;49.272;11.070;2024-02-26T07:00:30;16.27;;;10.10;;
16029;SDS011;34770;49.272;11.070;2024-02-26T07:02:56;24.00;;;14.77;;
16029;SDS011;34770;49.272;11.070;2024-02-26T07:05:21;23.13;;;13.53;;
16029;SDS011;34770;49.272;11.070;2024-02-26T07:07:47;22.00;;;14.53;;
16029;SDS011;34770;49.272;11.070;2024-02-26T07:10:12;18.83;;;14.57;;
16029;SDS011;34770;49.272;11.070;2024-02-26T07:12:38;24.13;;;15.07;;
16029;SDS011;34770;49.272;11.070;2024-02-26T07:15:04;18.93;;;13.87;;
16029;SDS011;34770;49.272;11.070;2024-02-26T07:17:32;18.40;;;13.67;;
16029;SDS011;34770;49.272;11.070;2024-02-26T07:19:59;18.70;;;12.63;;
16029;SDS011;34770;49.272;11.070;2024-02-26T07:22:24;17.23;;;12.10;;
16029;SDS011;34770;49.272;11.070;2024-02-26T07:24:50;20.57;;;12.30;;
16029;SDS011;34770;49.272;11.070;2024-02-26T07:27:16;16.87;;;10.83;;
16029;SDS011;34770;49.272;11.070;2024-02-26T07:29:42;16.30;;;11.00;;
16029;SDS011;34770;49.272;11.070;2024-02-26T07:32:08;18.37;;;11.40;;
16029;SDS011;34770;49.272;11.070;2024-02-26T07:34:33;16.23;;;10.10;;
16029;SDS011;34770;49.272;11.070;2024-02-26T07:36:59;16.17;;;10.97;;
16029;SDS011;34770;49.272;11.070;2024-02-26T07:39:24;19.97;;;12.63;;
16029;SDS011;34770;49.272;11.070;2024-02-26T07:41:50;18.63;;;13.07;;
16029;SDS011;34770;49.272;11.070;2024-02-26T07:44:18;20.90;;;12.63;;
16029;SDS011;34770;49.272;11.070;2024-02-26T07:46:43;19.10;;;12.13;;
16029;SDS011;34770;49.272;11.070;2024-02-26T07:49:09;24.40;;;15.93;;
16029;SDS011;34770;49.272;11.070;2024-02-26T07:51:34;28.03;;;17.67;;
16029;SDS011;34770;49.272;11.070;2024-02-26T07:54:00;24.87;;;14.13;;
16029;SDS011;34770;49.272;11.070;2024-02-26T07:56:26;16.38;;;10.85;;
16029;SDS011;34770;49.272;11.070;2024-02-26T07:58:51;20.47;;;15.53;;
16029;SDS011;34770;49.272;11.070;2024-02-26T08:01:17;17.47;;;11.13;;
16029;SDS011;34770;49.272;11.070;2024-02-26T08:03:42;14.87;;;9.43;;
16029;SDS011;34770;49.272;11.070;2024-02-26T08:06:08;14.83;;;10.03;;
16029;SDS011;34770;49.272;11.070;2024-02-26T08:08:34;17.30;;;10.33;;
16029;SDS011;34770;49.272;11.070;2024-02-26T08:10:59;23.03;;;14.23;;
16029;SDS011;34770;49.272;11.070;2024-02-26T08:13:25;19.60;;;14.53;;
16029;SDS011;34770;49.272;11.070;2024-02-26T08:15:51;16.70;;;11.50;;
16029;SDS011;34770;49.272;11.070;2024-02-26T08:18:17;14.73;;;10.80;;
16029;SDS011;34770;49.272;11.070;2024-02-26T08:20:43;13.48;;;10.45;;
16029;SDS011;34770;49.272;11.070;2024-02-26T08:23:08;15.40;;;9.65;;
16029;SDS011;34770;49.272;11.070;2024-02-26T08:25:34;13.70;;;10.73;;
16029;SDS011;34770;49.272;11.070;2024-02-26T08:27:59;11.73;;;8.60;;
16029;SDS011;34770;49.272;11.070;2024-02-26T08:30:24;13.23;;;9.27;;
16029;SDS011;34770;49.272;11.070;2024-02-26T08:32:50;13.07;;;9.52;;
16029;SDS011;34770;49.272;11.070;2024-02-26T08:35:16;15.88;;;10.30;;
16029;SDS011;34770;49.272;11.070;2024-02-26T08:37:45;12.13;;;8.95;;
16029;SDS011;34770;49.272;11.070;2024-02-26T08:40:11;14.07;;;8.73;;
16029;SDS011;34770;49.272;11.070;2024-02-26T08:42:36;14.93;;;9.75;;
16029;SDS011;34770;49.272;11.070;2024-02-26T08:45:02;14.75;;;8.48;;
16029;SDS011;34770;49.272;11.070;2024-02-26T08:47:28;11.93;;;8.10;;
16029;SDS011;34770;49.272;11.070;2024-02-26T08:49:53;8.93;;;7.72;;
16029;SDS011;34770;49.272;11.070;2024-02-26T08:52:19;11.32;;;8.10;;
16029;SDS011;34770;49.272;11.070;2024-02-26T08:54:44;9.63;;;6.95;;
16029;SDS011;34770;49.272;11.070;2024-02-26T08:57:10;12.55;;;8.38;;
16029;SDS011;34770;49.272;11.070;2024-02-26T08:59:35;9.80;;;6.97;;
16029;SDS011;34770;49.272;11.070;2024-02-26T09:02:01;7.53;;;5.90;;
16029;SDS011;34770;49.272;11.070;2024-02-26T09:04:26;9.10;;;6.28;;
16029;SDS011;34770;49.272;11.070;2024-02-26T09:06:52;6.97;;;5.72;;
16029;SDS011;34770;49.272;11.070;2024-02-26T09:09:19;11.93;;;7.07;;
16029;SDS011;34770;49.272;11.070;2024-02-26T09:11:45;8.02;;;5.47;;
16029;SDS011;34770;49.272;11.070;2024-02-26T09:14:11;9.23;;;5.80;;
16029;SDS011;34770;49.272;11.070;2024-02-26T09:16:37;8.30;;;5.22;;
16029;SDS011;34770;49.272;11.070;2024-02-26T09:19:02;5.45;;;4.03;;
16029;SDS011;34770;49.272;11.070;2024-02-26T09:21:28;10.00;;;5.65;;
16029;SDS011;34770;49.272;11.070;2024-02-26T09:23:53;6.28;;;4.55;;
16029;SDS011;34770;49.272;11.070;2024-02-26T09:26:19;4.63;;;3.72;;
16029;SDS011;34770;49.272;11.070;2024-02-26T09:28:45;5.45;;;3.83;;
16029;SDS011;34770;49.272;11.070;2024-02-26T09:31:10;4.93;;;3.30;;
16029;SDS011;34770;49.272;11.070;2024-02-26T09:33:36;5.45;;;3.78;;
16029;SDS011;34770;49.272;11.070;2024-02-26T09:36:01;3.53;;;3.20;;
16029;SDS011;34770;49.272;11.070;2024-02-26T09:38:29;8.15;;;4.28;;
16029;SDS011;34770;49.272;11.070;2024-02-26T09:40:58;5.03;;;3.50;;
16029;SDS011;34770;49.272;11.070;2024-02-26T09:43:24;3.78;;;2.92;;
16029;SDS011;34770;49.272;11.070;2024-02-26T09:45:55;3.53;;;3.00;;
16029;SDS011;34770;49.272;11.070;2024-02-26T09:48:21;3.90;;;3.38;;
16029;SDS011;34770;49.272;11.070;2024-02-26T09:50:48;3.50;;;3.20;;
16029;SDS011;34770;49.272;11.070;2024-02-26T09:53:14;4.55;;;2.85;;
16029;SDS011;34770;49.272;11.070;2024-02-26T09:55:40;3.08;;;2.63;;
16029;SDS011;34770;49.272;11.070;2024-02-26T09:58:06;3.15;;;2.85;;
16029;SDS011;34770;49.272;11.070;2024-02-26T10:00:32;3.95;;;2.80;;
16029;SDS011;34770;49.272;11.070;2024-02-26T10:03:06;4.10;;;2.97;;
16029;SDS011;34770;49.272;11.070;2024-02-26T10:05:38;3.45;;;2.85;;
16029;SDS011;34770;49.272;11.070;2024-02-26T10:08:05;3.03;;;2.70;;
16029;SDS011;34770;49.272;11.070;2024-02-26T10:10:33;3.08;;;2.80;;
16029;SDS011;34770;49.272;11.070;2024-02-26T10:12:59;2.80;;;2.60;;
16029;SDS011;34770;49.272;11.070;2024-02-26T10:15:25;3.55;;;2.50;;
16029;SDS011;34770;49.272;11.070;2024-02-26T10:17:51;3.60;;;3.13;;
16029;SDS011;34770;49.272;11.070;2024-02-26T10:20:17;4.55;;;2.97;;
16029;SDS011;34770;49.272;11.070;2024-02-26T10:22:43;4.45;;;3.00;;
16029;SDS011;34770;49.272;11.070;2024-02-26T10:25:10;2.63;;;2.42;;
16029;SDS011;34770;49.272;11.070;2024-02-26T10:27:35;2.88;;;2.60;;
16029;SDS011;34770;49.272;11.070;2024-02-26T10:30:17;3.13;;;2.83;;
16029;SDS011;34770;49.272;11.070;2024-02-26T10:32:46;3.30;;;3.00;;
16029;SDS011;34770;49.272;11.070;2024-02-26T10:35:12;5.60;;;4.97;;
16029;SDS011;34770;49.272;11.070;2024-02-26T10:37:39;3.17;;;2.88;;
16029;SDS011;34770;49.272;11.070;2024-02-26T10:40:06;5.15;;;3.50;;
16029;SDS011;34770;49.272;11.070;2024-02-26T10:42:38;3.10;;;2.75;;
16029;SDS011;34770;49.272;11.070;2024-02-26T10:45:06;2.92;;;2.63;;
16029;SDS011;34770;49.272;11.070;2024-02-26T10:47:34;20.23;;;14.07;;
16029;SDS011;34770;49.272;11.070;2024-02-26T10:50:04;9.60;;;8.77;;
16029;SDS011;34770;49.272;11.070;2024-02-26T10:52:31;7.20;;;6.38;;
16029;SDS011;34770;49.272;11.070;2024-02-26T10:55:02;6.05;;;5.45;;
16029;SDS011;34770;49.272;11.070;2024-02-26T10:57:35;3.55;;;3.25;;
16029;SDS011;34770;49.272;11.070;2024-02-26T11:00:04;5.88;;;5.32;;
16029;SDS011;34770;49.272;11.070;2024-02-26T11:02:32;10.45;;;9.50;;
16029;SDS011;34770;49.272;11.070;2024-02-26T11:05:00;4.95;;;4.55;;
16029;SDS011;34770;49.272;11.070;2024-02-26T11:07:30;4.57;;;3.83;;
16029;SDS011;34770;49.272;11.070;2024-02-26T11:09:57;3.15;;;2.90;;
16029;SDS011;34770;49.272;11.070;2024-02-26T11:12:25;2.85;;;2.65;;
16029;SDS011;34770;49.272;11.070;2024-02-26T11:14:53;3.63;;;2.95;;
16029;SDS011;34770;49.272;11.070;2024-02-26T11:17:22;4.32;;;3.38;;
16029;SDS011;34770;49.272;11.070;2024-02-26T11:19:49;3.90;;;2.95;;
16029;SDS011;34770;49.272;11.070;2024-02-26T11:22:16;5.72;;;5.03;;
16029;SDS011;34770;49.272;11.070;2024-02-26T11:24:42;5.47;;;4.97;;
16029;SDS011;34770;49.272;11.070;2024-02-26T11:27:09;4.03;;;3.63;;
16029;SDS011;34770;49.272;11.070;2024-02-26T11:29:42;3.90;;;3.25;;
16029;SDS011;34770;49.272;11.070;2024-02-26T11:32:12;4.30;;;3.67;;
16029;SDS011;34770;49.272;11.070;2024-02-26T11:34:38;3.15;;;2.85;;
16029;SDS011;34770;49.272;11.070;2024-02-26T11:37:11;4.20;;;2.63;;
16029;SDS011;34770;49.272;11.070;2024-02-26T11:39:39;3.67;;;3.38;;
16029;SDS011;34770;49.272;11.070;2024-02-26T11:42:08;2.97;;;2.67;;
16029;SDS011;34770;49.272;11.070;2024-02-26T11:44:35;2.97;;;2.78;;
16029;SDS011;34770;49.272;11.070;2024-02-26T11:47:21;4.00;;;3.35;;
16029;SDS011;34770;49.272;11.070;2024-02-26T11:49:48;3.70;;;3.05;;
16029;SDS011;34770;49.272;11.070;2024-02-26T11:52:14;2.90;;;2.60;;
16029;SDS011;34770;49.272;11.070;2024-02-26T11:54:47;3.67;;;2.83;;
16029;SDS011;34770;49.272;11.070;2024-02-26T12:00:12;3.78;;;3.00;;
16029;SDS011;34770;49.272;11.070;2024-02-26T12:02:39;3.40;;;3.10;;
16029;SDS011;34770;49.272;11.070;2024-02-26T12:05:17;2.78;;;2.55;;
16029;SDS011;34770;49.272;11.070;2024-02-26T12:07:49;3.10;;;2.85;;
16029;SDS011;34770;49.272;11.070;2024-02-26T12:12:47;3.40;;;2.67;;
16029;SDS011;34770;49.272;11.070;2024-02-26T12:15:12;2.45;;;2.25;;
16029;SDS011;34770;49.272;11.070;2024-02-26T12:17:40;2.88;;;2.63;;
16029;SDS011;34770;49.272;11.070;2024-02-26T12:20:12;2.47;;;2.28;;
16029;SDS011;34770;49.272;11.070;2024-02-26T12:22:41;2.22;;;2.00;;
16029;SDS011;34770;49.272;11.070;2024-02-26T12:25:10;3.53;;;2.78;;
16029;SDS011;34770;49.272;11.070;2024-02-26T12:27:35;2.58;;;2.35;;
16029;SDS011;34770;49.272;11.070;2024-02-26T12:30:02;2.47;;;2.28;;
16029;SDS011;34770;49.272;11.070;2024-02-26T12:32:28;3.13;;;2.83;;
16029;SDS011;34770;49.272;11.070;2024-02-26T12:34:54;2.58;;;2.35;;
16029;SDS011;34770;49.272;11.070;2024-02-26T12:37:19;3.22;;;2.63;;
16029;SDS011;34770;49.272;11.070;2024-02-26T12:39:45;5.13;;;2.38;;
16029;SDS011;34770;49.272;11.070;2024-02-26T12:42:11;3.65;;;3.35;;
16029;SDS011;34770;49.272;11.070;2024-02-26T12:44:37;4.28;;;3.03;;
16029;SDS011;34770;49.272;11.070;2024-02-26T12:47:03;3.13;;;2.83;;
16029;SDS011;34770;49.272;11.070;2024-02-26T12:49:29;2.47;;;2.25;;
16029;SDS011;34770;49.272;11.070;2024-02-26T12:51:54;4.75;;;3.20;;
16029;SDS011;34770;49.272;11.070;2024-02-26T12:54:26;2.90;;;2.70;;
16029;SDS011;34770;49.272;11.070;2024-02-26T12:56:53;3.55;;;2.70;;
16029;SDS011;34770;49.272;11.070;2024-02-26T12:59:19;3.40;;;2.67;;
16029;SDS011;34770;49.272;11.070;2024-02-26T13:01:44;2.78;;;2.22;;
16029;SDS011;34770;49.272;11.070;2024-02-26T13:04:10;2.83;;;2.47;;
16029;SDS011;34770;49.272;11.070;2024-02-26T13:06:36;3.00;;;2.70;;
16029;SDS011;34770;49.272;11.070;2024-02-26T13:09:01;2.88;;;2.58;;
16029;SDS011;34770;49.272;11.070;2024-02-26T13:11:29;2.38;;;2.17;;
16029;SDS011;34770;49.272;11.070;2024-02-26T13:13:56;2.28;;;2.08;;
16029;SDS011;34770;49.272;11.070;2024-02-26T13:16:23;3.85;;;2.83;;
16029;SDS011;34770;49.272;11.070;2024-02-26T13:18:50;2.28;;;2.08;;
16029;SDS011;34770;49.272;11.070;2024-02-26T13:21:15;2.50;;;2.30;;
16029;SDS011;34770;49.272;11.070;2024-02-26T13:23:45;3.33;;;3.03;;
16029;SDS011;34770;49.272;11.070;2024-02-26T13:26:15;5.25;;;4.10;;
16029;SDS011;34770;49.272;11.070;2024-02-26T13:28:40;2.20;;;2.00;;
16029;SDS011;34770;49.272;11.070;2024-02-26T13:31:06;3.13;;;2.42;;
16029;SDS011;34770;49.272;11.070;2024-02-26T13:33:33;2.53;;;2.33;;
16029;SDS011;34770;49.272;11.070;2024-02-26T13:35:59;5.07;;;3.33;;
16029;SDS011;34770;49.272;11.070;2024-02-26T13:38:25;8.43;;;5.65;;
16029;SDS011;34770;49.272;11.070;2024-02-26T13:40:51;3.00;;;1.83;;
16029;SDS011;34770;49.272;11.070;2024-02-26T13:43:18;2.05;;;1.80;;
16029;SDS011;34770;49.272;11.070;2024-02-26T13:45:44;2.97;;;2.10;;
16029;SDS011;34770;49.272;11.070;2024-02-26T13:48:10;2.38;;;1.65;;
16029;SDS011;34770;49.272;11.070;2024-02-26T13:50:36;3.90;;;2.40;;
16029;SDS011;34770;49.272;11.070;2024-02-26T13:53:02;3.83;;;2.15;;
16029;SDS011;34770;49.272;11.070;2024-02-26T13:55:30;1.90;;;1.77;;
16029;SDS011;34770;49.272;11.070;2024-02-26T13:57:57;5.85;;;3.30;;
16029;SDS011;34770;49.272;11.070;2024-02-26T14:00:24;4.47;;;2.88;;
16029;SDS011;34770;49.272;11.070;2024-02-26T14:02:50;5.60;;;1.90;;
16029;SDS011;34770;49.272;11.070;2024-02-26T14:05:16;2.00;;;1.90;;
16029;SDS011;34770;49.272;11.070;2024-02-26T14:07:41;2.10;;;1.90;;
16029;SDS011;34770;49.272;11.070;2024-02-26T14:10:08;1.58;;;1.48;;
16029;SDS011;34770;49.272;11.070;2024-02-26T14:12:36;2.00;;;1.80;;
16029;SDS011;34770;49.272;11.070;2024-02-26T14:15:02;2.58;;;2.38;;
16029;SDS011;34770;49.272;11.070;2024-02-26T14:17:30;2.25;;;1.98;;
16029;SDS011;34770;49.272;11.070;2024-02-26T14:19:56;3.03;;;2.65;;
16029;SDS011;34770;49.272;11.070;2024-02-26T14:22:21;2.20;;;2.00;;
16029;SDS011;34770;49.272;11.070;2024-02-26T14:24:47;2.42;;;2.05;;